Time;durP1;ratioP1;P1;durP2;ratioP2;P2;SDS_P1;SDS_P2;PMS_P1;PMS_P2;Temp;Humidity;BMP_temperature;BMP_pressure;BME280_temperature;BME280_humidity;BME280_pressure;Samples;Min_cycle;Max_cycle;Signal;HPM_P1;HPM_P2
2023/08/16 00:00:14;;;;;;;5.40;4.57;;;22.40;99.90;;;;;;4945207;29;20631;-74
2023/08/16 00:02:40;;;;;;;5.87;4.33;;;22.40;99.90;;;;;;4966413;28;20623;-73
2023/08/16 00:05:06;;;;;;;5.53;4.70;;;22.40;99.90;;;;;;4953279;28;20648;-74
2023/08/16 00:07:34;;;;;;;4.67;4.20;;;22.30;99.90;;;;;;4947537;29;20176;-73
2023/08/16 00:10:00;;;;;;;3.90;3.50;;;22.30;99.90;;;;;;4951684;29;20588;-74
2023/08/16 00:12:26;;;;;;;7.57;4.60;;;22.30;99.90;;;;;;4951771;28;20626;-73
2023/08/16 00:14:52;;;;;;;3.50;3.20;;;22.30;99.90;;;;;;4948486;29;20963;-74
2023/08/16 00:17:20;;;;;;;5.60;4.10;;;22.30;99.90;;;;;;4947591;29;20173;-73
2023/08/16 00:19:46;;;;;;;4.93;4.00;;;22.30;99.90;;;;;;4951523;29;21164;-73
2023/08/16 00:22:12;;;;;;;6.20;3.97;;;22.20;99.90;;;;;;4943623;29;20713;-73
2023/08/16 00:24:37;;;;;;;6.27;4.20;;;22.20;99.90;;;;;;4949784;29;20424;-73
2023/08/16 00:27:03;;;;;;;4.93;4.40;;;22.20;99.90;;;;;;4951891;29;20176;-73
2023/08/16 00:29:29;;;;;;;4.80;4.37;;;22.10;99.90;;;;;;4940204;29;20718;-73
2023/08/16 00:31:57;;;;;;;5.20;4.00;;;22.10;99.90;;;;;;4943784;28;20631;-74
2023/08/16 00:34:23;;;;;;;5.00;4.50;;;22.10;99.90;;;;;;4951520;28;20204;-74
2023/08/16 00:36:49;;;;;;;5.13;4.63;;;22.10;99.90;;;;;;4951494;29;20607;-74
2023/08/16 00:39:14;;;;;;;6.73;5.20;;;22.00;99.90;;;;;;4919799;29;20183;-74
2023/08/16 00:41:40;;;;;;;5.30;4.40;;;22.00;99.90;;;;;;4950913;28;20247;-74
2023/08/16 00:44:06;;;;;;;5.50;4.97;;;22.00;99.90;;;;;;4951692;28;20211;-74
2023/08/16 00:46:32;;;;;;;7.70;5.27;;;22.00;99.90;;;;;;4950545;29;20176;-73
2023/08/16 00:48:58;;;;;;;5.27;4.77;;;22.00;99.90;;;;;;4938312;29;20184;-74
2023/08/16 00:51:23;;;;;;;8.47;5.40;;;21.90;99.90;;;;;;4955154;28;21213;-73
2023/08/16 00:53:50;;;;;;;5.43;4.93;;;21.90;99.90;;;;;;4947099;29;20648;-73
2023/08/16 00:56:16;;;;;;;5.70;5.20;;;21.90;99.90;;;;;;4955155;29;20211;-74
2023/08/16 00:58:42;;;;;;;6.43;5.80;;;21.90;99.90;;;;;;4947292;28;20600;-74
2023/08/16 01:01:10;;;;;;;7.80;6.87;;;21.90;99.90;;;;;;4954665;28;20624;-74
2023/08/16 01:03:36;;;;;;;6.67;5.90;;;21.90;99.90;;;;;;4955176;29;20620;-74
2023/08/16 01:06:03;;;;;;;6.90;6.40;;;21.90;99.90;;;;;;4942462;28;20605;-74
2023/08/16 01:08:29;;;;;;;6.90;6.30;;;21.90;99.90;;;;;;4984247;28;20587;-73
2023/08/16 01:11:16;;;;;;;6.10;5.43;;;21.80;99.90;;;;;;4954553;28;20639;-74
2023/08/16 01:13:48;;;;;;;8.10;6.20;;;21.80;99.90;;;;;;4939053;29;20595;-74
2023/08/16 01:16:16;;;;;;;6.87;5.23;;;21.80;99.90;;;;;;4971365;23;21249;-77
2023/08/16 01:18:42;;;;;;;7.30;6.60;;;21.80;99.90;;;;;;4931264;29;20659;-78
2023/08/16 01:21:11;;;;;;;9.57;5.90;;;21.70;99.90;;;;;;4925731;29;20642;-78
2023/08/16 01:24:06;;;;;;;7.23;5.60;;;21.70;99.90;;;;;;4950757;29;20748;-78
2023/08/16 01:26:39;;;;;;;6.90;6.17;;;21.70;99.90;;;;;;4937427;28;21206;-77
2023/08/16 01:29:07;;;;;;;6.83;6.13;;;21.60;99.90;;;;;;4970883;28;21238;-77
2023/08/16 01:31:34;;;;;;;6.73;6.00;;;21.60;99.90;;;;;;4959353;28;20597;-77
2023/08/16 01:33:59;;;;;;;7.00;6.30;;;21.60;99.90;;;;;;4929419;29;20588;-77
2023/08/16 01:36:28;;;;;;;6.80;6.10;;;21.50;99.90;;;;;;4941063;28;20616;-77
2023/08/16 01:42:47;;;;;;;7.27;6.30;;;21.50;99.90;;;;;;4949446;28;20731;-78
2023/08/16 01:45:15;;;;;;;8.37;7.57;;;21.50;99.90;;;;;;4935478;29;20632;-79
2023/08/16 01:47:42;;;;;;;8.27;6.63;;;21.40;99.90;;;;;;4959649;28;21221;-77
2023/08/16 01:50:08;;;;;;;12.53;8.03;;;21.40;99.90;;;;;;4954502;28;20586;-79
2023/08/16 01:52:35;;;;;;;9.07;8.23;;;21.40;99.90;;;;;;4933104;29;20616;-78
2023/08/16 01:55:01;;;;;;;8.97;8.07;;;21.40;99.90;;;;;;4942641;29;21034;-78
2023/08/16 01:57:27;;;;;;;9.50;8.60;;;21.30;99.90;;;;;;4942176;29;20584;-78
2023/08/16 01:59:52;;;;;;;9.43;8.50;;;21.30;99.90;;;;;;4950520;29;20920;-78
2023/08/16 02:02:18;;;;;;;10.10;9.20;;;21.30;99.90;;;;;;4952709;28;20181;-78
2023/08/16 02:04:44;;;;;;;9.73;8.93;;;21.30;99.90;;;;;;4965179;28;20177;-77
2023/08/16 02:07:09;;;;;;;10.80;8.83;;;21.30;99.90;;;;;;4938509;29;20205;-76
2023/08/16 02:09:35;;;;;;;10.97;9.87;;;21.30;99.90;;;;;;4940830;29;20196;-76
2023/08/16 02:12:02;;;;;;;10.80;9.70;;;21.20;99.90;;;;;;4934783;29;20206;-76
2023/08/16 02:14:28;;;;;;;10.77;9.80;;;21.20;99.90;;;;;;4934828;29;20628;-76
2023/08/16 02:16:54;;;;;;;10.77;9.60;;;21.20;99.90;;;;;;4950174;28;20656;-76
2023/08/16 02:19:20;;;;;;;10.03;9.13;;;21.20;99.90;;;;;;4934114;29;20607;-76
2023/08/16 02:21:46;;;;;;;10.70;9.60;;;21.20;99.90;;;;;;4934396;29;20267;-76
2023/08/16 02:24:12;;;;;;;9.60;8.80;;;21.20;99.90;;;;;;4950683;28;20188;-76
2023/08/16 02:26:38;;;;;;;10.80;9.80;;;21.20;99.90;;;;;;4949745;28;20201;-76
2023/08/16 02:29:03;;;;;;;10.17;9.23;;;21.20;99.90;;;;;;4934391;29;20589;-79
2023/08/16 02:31:29;;;;;;;11.90;10.70;;;21.10;99.90;;;;;;4966188;28;20193;-79
2023/08/16 02:33:55;;;;;;;11.30;10.20;;;21.10;99.90;;;;;;4950424;28;20533;-79
2023/08/16 02:36:21;;;;;;;11.63;10.53;;;21.10;99.90;;;;;;4935428;28;20193;-79
2023/08/16 02:38:47;;;;;;;10.40;9.50;;;21.10;99.90;;;;;;4952714;28;21106;-78
2023/08/16 02:41:13;;;;;;;11.23;10.07;;;21.10;99.90;;;;;;4933704;29;20703;-78
2023/08/16 02:43:39;;;;;;;12.43;11.23;;;21.10;99.90;;;;;;4978284;28;20679;-78
2023/08/16 02:46:07;;;;;;;11.97;10.77;;;21.10;99.90;;;;;;4934775;29;20208;-78
2023/08/16 02:48:33;;;;;;;12.47;11.37;;;21.10;99.90;;;;;;4933719;29;20189;-77
2023/08/16 02:50:59;;;;;;;11.97;10.97;;;21.10;99.90;;;;;;4933797;28;20581;-78
2023/08/16 02:53:25;;;;;;;13.33;12.17;;;21.10;99.90;;;;;;4918224;29;20603;-79
2023/08/16 02:55:51;;;;;;;13.93;12.30;;;21.10;99.90;;;;;;4917828;29;20632;-79
2023/08/16 02:58:17;;;;;;;13.00;11.70;;;21.10;99.90;;;;;;4935358;29;20185;-78
2023/08/16 03:00:42;;;;;;;11.83;10.73;;;21.10;99.90;;;;;;4957318;28;20252;-78
2023/08/16 03:03:08;;;;;;;13.40;12.20;;;21.10;99.90;;;;;;4933983;29;20219;-78
2023/08/16 03:05:34;;;;;;;13.03;11.80;;;21.10;99.90;;;;;;4902341;29;20204;-78
2023/08/16 03:08:00;;;;;;;12.30;11.00;;;21.20;99.90;;;;;;4933764;29;20217;-79
2023/08/16 03:10:25;;;;;;;13.23;12.10;;;21.20;99.90;;;;;;4940351;28;20177;-78
2023/08/16 03:12:51;;;;;;;13.80;11.70;;;21.20;99.90;;;;;;4956947;28;20640;-79
2023/08/16 03:15:17;;;;;;;11.83;10.73;;;21.20;99.90;;;;;;4965855;28;20589;-79
2023/08/16 03:17:43;;;;;;;12.90;11.67;;;21.20;99.90;;;;;;4957594;28;20741;-78
2023/08/16 03:20:09;;;;;;;12.27;10.97;;;21.30;99.90;;;;;;4937478;29;20596;-78
2023/08/16 03:22:35;;;;;;;10.93;10.03;;;21.40;99.90;;;;;;4957889;28;20309;-79
2023/08/16 03:25:01;;;;;;;13.07;11.77;;;21.40;99.90;;;;;;4933119;29;21289;-79
2023/08/16 03:27:27;;;;;;;14.50;13.00;;;21.50;99.90;;;;;;4955597;28;20301;-79
2023/08/16 03:29:52;;;;;;;12.73;11.57;;;21.50;99.90;;;;;;4940015;29;20967;-78
2023/08/16 03:32:19;;;;;;;12.30;11.10;;;21.50;99.90;;;;;;4935253;29;20173;-77
2023/08/16 03:34:46;;;;;;;13.00;11.90;;;21.60;99.90;;;;;;4949815;28;20196;-77
2023/08/16 03:37:12;;;;;;;13.70;12.20;;;21.60;99.90;;;;;;4925622;29;20589;-78
2023/08/16 03:39:37;;;;;;;12.67;11.37;;;21.60;99.90;;;;;;4949357;28;20180;-77
2023/08/16 03:42:03;;;;;;;11.43;10.50;;;21.70;99.90;;;;;;4941029;29;20555;-78
2023/08/16 03:44:29;;;;;;;11.87;10.70;;;21.80;99.90;;;;;;4938928;29;20521;-78
2023/08/16 03:46:56;;;;;;;12.17;10.90;;;21.80;99.90;;;;;;4934275;29;20628;-79
2023/08/16 03:49:22;;;;;;;10.20;9.40;;;21.80;99.90;;;;;;4963383;28;20181;-79
2023/08/16 03:51:48;;;;;;;11.73;10.73;;;21.80;99.90;;;;;;4917406;29;20601;-79
2023/08/16 03:54:14;;;;;;;13.67;12.37;;;21.90;99.90;;;;;;4932919;29;20959;-79
2023/08/16 03:56:40;;;;;;;12.00;10.90;;;21.90;99.90;;;;;;4949958;28;20217;-78
2023/08/16 03:59:08;;;;;;;12.33;11.23;;;21.90;99.90;;;;;;4932142;29;20244;-78
2023/08/16 04:01:34;;;;;;;11.33;10.40;;;21.90;99.90;;;;;;4940746;28;20676;-78
2023/08/16 04:04:00;;;;;;;11.10;10.10;;;21.90;99.90;;;;;;4956929;28;20589;-78
2023/08/16 04:06:26;;;;;;;11.93;10.43;;;22.00;99.90;;;;;;4933988;29;21031;-79
2023/08/16 04:08:52;;;;;;;11.10;10.10;;;22.00;99.90;;;;;;4934164;29;20593;-79
2023/08/16 04:11:18;;;;;;;11.83;10.73;;;22.00;99.90;;;;;;4932707;29;20208;-78
2023/08/16 04:13:43;;;;;;;11.13;10.13;;;22.00;99.90;;;;;;4934159;29;20294;-78
2023/08/16 04:16:10;;;;;;;10.93;9.80;;;22.00;99.90;;;;;;4932568;29;20213;-79
2023/08/16 04:18:36;;;;;;;11.23;10.13;;;22.00;99.90;;;;;;4939624;29;20615;-80
2023/08/16 04:21:02;;;;;;;11.00;9.83;;;22.00;99.90;;;;;;4924511;29;20691;-80
2023/08/16 04:23:28;;;;;;;11.20;10.10;;;22.00;99.90;;;;;;4964729;28;20605;-80
2023/08/16 04:25:54;;;;;;;10.57;9.57;;;22.00;99.90;;;;;;4933760;29;21225;-80
2023/08/16 04:28:20;;;;;;;10.60;9.70;;;22.00;99.90;;;;;;4966047;28;20185;-77
2023/08/16 04:30:46;;;;;;;9.73;8.93;;;22.00;99.90;;;;;;4929369;29;20604;-77
2023/08/16 04:33:12;;;;;;;9.80;9.00;;;22.00;99.90;;;;;;4939635;29;20177;-77
2023/08/16 04:35:38;;;;;;;11.17;10.07;;;22.00;99.90;;;;;;4935417;29;20684;-77
2023/08/16 04:38:05;;;;;;;9.77;8.90;;;22.00;99.90;;;;;;4932075;29;20181;-77
2023/08/16 04:40:31;;;;;;;11.00;9.90;;;22.00;99.90;;;;;;4945572;29;20699;-77
2023/08/16 04:42:58;;;;;;;11.20;10.07;;;22.00;99.90;;;;;;4933552;29;21029;-77
2023/08/16 04:45:24;;;;;;;10.47;9.40;;;22.00;99.90;;;;;;4932640;29;20719;-77
2023/08/16 04:47:50;;;;;;;9.77;8.73;;;22.00;99.90;;;;;;4900919;29;20647;-77
2023/08/16 04:50:18;;;;;;;9.57;8.67;;;22.00;99.90;;;;;;4932278;29;20608;-79
2023/08/16 04:52:43;;;;;;;8.27;7.57;;;22.00;99.90;;;;;;4964395;28;20673;-79
2023/08/16 04:55:09;;;;;;;9.50;8.70;;;22.00;99.90;;;;;;4937249;28;20624;-79
2023/08/16 04:57:37;;;;;;;10.70;9.67;;;22.00;99.90;;;;;;4932847;29;20593;-76
2023/08/16 05:00:07;;;;;;;10.80;9.27;;;22.00;99.90;;;;;;4931973;29;20592;-75
2023/08/16 05:02:38;;;;;;;10.07;9.20;;;22.00;99.90;;;;;;4932295;29;20596;-76
2023/08/16 05:05:05;;;;;;;10.87;9.97;;;22.00;99.90;;;;;;4916140;29;20625;-76
2023/08/16 05:07:31;;;;;;;14.03;10.10;;;22.00;99.90;;;;;;4900544;29;20185;-74
2023/08/16 05:09:57;;;;;;;9.77;8.87;;;22.00;99.90;;;;;;4939582;29;20696;-76
2023/08/16 05:12:22;;;;;;;10.17;9.17;;;22.00;99.90;;;;;;4949822;29;21202;-76
2023/08/16 05:14:49;;;;;;;9.73;8.77;;;22.10;99.90;;;;;;4933225;29;20711;-75
2023/08/16 05:17:15;;;;;;;10.63;9.53;;;22.00;99.90;;;;;;4931814;29;20609;-75
2023/08/16 05:19:41;;;;;;;9.90;8.00;;;22.10;99.90;;;;;;4955706;28;20748;-75
2023/08/16 05:22:06;;;;;;;10.47;9.40;;;22.10;99.90;;;;;;4963569;28;20740;-75
2023/08/16 05:24:32;;;;;;;11.57;10.43;;;22.10;99.90;;;;;;4932089;29;20177;-76
2023/08/16 05:26:58;;;;;;;10.17;9.33;;;22.10;99.90;;;;;;4933792;29;20648;-75
2023/08/16 05:29:24;;;;;;;9.30;8.23;;;22.10;99.90;;;;;;4937984;29;20538;-74
2023/08/16 05:31:49;;;;;;;11.73;9.50;;;22.10;99.90;;;;;;4964043;28;20628;-76
2023/08/16 05:34:16;;;;;;;10.33;9.43;;;22.10;99.90;;;;;;4936330;29;20980;-76
2023/08/16 05:36:46;;;;;;;9.83;8.93;;;22.20;99.90;;;;;;4939242;28;20209;-76
2023/08/16 05:39:12;;;;;;;9.10;8.30;;;22.20;99.90;;;;;;4943155;29;20949;-76
2023/08/16 05:41:38;;;;;;;10.20;9.17;;;22.20;99.90;;;;;;4919057;29;20645;-76
2023/08/16 05:44:04;;;;;;;10.63;9.17;;;22.30;99.90;;;;;;4934320;29;20616;-75
2023/08/16 05:46:31;;;;;;;10.23;9.33;;;22.30;99.90;;;;;;4936711;29;20201;-76
2023/08/16 05:48:56;;;;;;;9.77;8.93;;;22.40;99.90;;;;;;4971802;28;20597;-76
2023/08/16 05:51:22;;;;;;;12.80;9.60;;;22.40;99.90;;;;;;4934518;29;20291;-76
2023/08/16 05:53:48;;;;;;;9.87;8.97;;;22.50;99.90;;;;;;4951160;29;20193;-76
2023/08/16 05:56:13;;;;;;;11.13;10.23;;;22.50;99.90;;;;;;4935075;29;20205;-76
2023/08/16 05:58:39;;;;;;;9.67;8.77;;;22.50;99.90;;;;;;4936578;29;20232;-76
2023/08/16 06:01:05;;;;;;;10.50;9.60;;;22.60;99.90;;;;;;4936688;28;20228;-79
2023/08/16 06:03:30;;;;;;;10.43;9.53;;;22.60;99.90;;;;;;4950905;29;20169;-79
2023/08/16 06:05:56;;;;;;;10.70;9.70;;;22.60;99.90;;;;;;4935205;29;20632;-80
2023/08/16 06:08:22;;;;;;;10.83;9.83;;;22.60;99.90;;;;;;4939081;29;20417;-79
2023/08/16 06:10:47;;;;;;;11.37;10.00;;;22.70;99.90;;;;;;4921677;29;20189;-79
2023/08/16 06:13:13;;;;;;;12.47;11.27;;;22.70;99.90;;;;;;4964006;28;20339;-78
2023/08/16 06:15:39;;;;;;;10.17;9.27;;;22.70;99.90;;;;;;4952686;28;20213;-79
2023/08/16 06:18:04;;;;;;;12.90;10.43;;;22.80;99.90;;;;;;4935771;29;20185;-78
2023/08/16 06:20:30;;;;;;;12.37;10.37;;;22.80;99.90;;;;;;4936445;29;20625;-77
2023/08/16 06:22:56;;;;;;;11.97;10.80;;;22.90;99.90;;;;;;4935197;29;20181;-78
2023/08/16 06:25:22;;;;;;;12.53;11.33;;;22.90;99.90;;;;;;4938559;29;20208;-78
2023/08/16 06:27:47;;;;;;;12.23;11.13;;;23.00;99.90;;;;;;4934859;29;20795;-78
2023/08/16 06:30:13;;;;;;;13.70;11.07;;;23.00;99.90;;;;;;4934054;29;20593;-79
2023/08/16 06:32:39;;;;;;;11.97;10.97;;;23.10;99.90;;;;;;4934666;29;20648;-78
2023/08/16 06:35:08;;;;;;;13.97;12.20;;;23.10;99.90;;;;;;4934223;29;20224;-78
2023/08/16 06:37:35;;;;;;;13.43;12.23;;;23.10;99.90;;;;;;4935801;29;20216;-78
2023/08/16 06:40:04;;;;;;;12.10;10.93;;;23.10;99.90;;;;;;4935184;29;21214;-79
2023/08/16 06:42:31;;;;;;;10.83;9.83;;;23.10;99.90;;;;;;4933791;29;20597;-79
2023/08/16 06:45:00;;;;;;;13.67;11.50;;;23.10;99.90;;;;;;4920850;29;20712;-78
2023/08/16 06:47:27;;;;;;;15.07;13.57;;;23.10;99.90;;;;;;4936845;29;20597;-79
2023/08/16 06:49:55;;;;;;;13.57;12.30;;;23.10;99.90;;;;;;4950610;29;20592;-79
2023/08/16 06:52:21;;;;;;;16.93;13.83;;;23.20;99.90;;;;;;4943523;29;20208;-75
2023/08/16 06:54:47;;;;;;;15.07;13.40;;;23.20;99.90;;;;;;4935194;29;20597;-75
2023/08/16 06:57:12;;;;;;;15.10;13.47;;;23.20;99.90;;;;;;4934111;29;20193;-75
2023/08/16 06:59:43;;;;;;;15.33;13.93;;;23.20;99.90;;;;;;4933880;29;20177;-75
2023/08/16 07:02:14;;;;;;;14.83;13.33;;;23.30;99.90;;;;;;4936819;29;21003;-75
2023/08/16 07:04:42;;;;;;;19.13;12.20;;;23.30;99.90;;;;;;4938258;29;20679;-75
2023/08/16 07:07:09;;;;;;;14.87;12.43;;;23.40;99.90;;;;;;4933767;29;20593;-73
2023/08/16 07:09:34;;;;;;;14.10;12.63;;;23.40;99.90;;;;;;4934232;29;20636;-74
2023/08/16 07:12:00;;;;;;;10.93;9.80;;;23.50;99.90;;;;;;4933374;29;20600;-73
2023/08/16 07:14:26;;;;;;;11.10;9.50;;;23.50;99.90;;;;;;4933662;29;20181;-75
2023/08/16 07:16:52;;;;;;;11.63;10.53;;;23.60;99.90;;;;;;4933426;29;20647;-75
2023/08/16 07:19:18;;;;;;;10.00;9.20;;;23.60;99.90;;;;;;4898371;29;20196;-74
2023/08/16 07:21:44;;;;;;;9.90;9.10;;;23.60;99.90;;;;;;4933343;29;20287;-76
2023/08/16 07:24:10;;;;;;;9.17;8.37;;;23.60;99.90;;;;;;4933579;29;20587;-77
2023/08/16 07:26:37;;;;;;;8.47;7.67;;;23.70;99.90;;;;;;4917548;29;20295;-76
2023/08/16 07:29:03;;;;;;;10.43;9.43;;;23.70;99.90;;;;;;4934671;29;20589;-77
2023/08/16 07:31:28;;;;;;;9.00;8.10;;;23.70;99.90;;;;;;4932831;29;20596;-77
2023/08/16 07:33:54;;;;;;;9.47;8.40;;;23.70;99.90;;;;;;4933414;29;20928;-76
2023/08/16 07:36:20;;;;;;;11.43;10.10;;;23.70;99.90;;;;;;4933470;29;20201;-76
2023/08/16 07:38:47;;;;;;;11.50;10.40;;;23.70;99.90;;;;;;4935718;29;20318;-76
2023/08/16 07:41:13;;;;;;;12.70;10.70;;;23.80;99.90;;;;;;4934196;29;20216;-77
2023/08/16 07:43:39;;;;;;;10.20;9.30;;;23.90;99.90;;;;;;4933497;29;20585;-76
2023/08/16 07:46:05;;;;;;;9.20;8.40;;;23.90;99.90;;;;;;4961957;28;20626;-76
2023/08/16 07:48:31;;;;;;;15.77;10.30;;;24.00;99.90;;;;;;4950933;28;20962;-77
2023/08/16 07:50:56;;;;;;;12.77;9.70;;;24.20;99.90;;;;;;4934246;29;20660;-77
2023/08/16 07:53:22;;;;;;;9.27;8.57;;;24.30;99.90;;;;;;4966244;28;20212;-77
2023/08/16 07:55:48;;;;;;;11.57;8.90;;;24.30;99.90;;;;;;4933487;29;20212;-77
2023/08/16 07:58:15;;;;;;;9.97;8.97;;;24.50;99.90;;;;;;4934422;29;20192;-77
2023/08/16 08:00:48;;;;;;;11.10;10.10;;;24.50;99.90;;;;;;4934179;29;20716;-77
2023/08/16 08:03:14;;;;;;;10.13;9.23;;;24.60;99.90;;;;;;4932781;29;20605;-76
2023/08/16 08:05:39;;;;;;;10.63;9.53;;;24.70;99.90;;;;;;4933805;29;21182;-77
2023/08/16 08:08:06;;;;;;;10.83;9.77;;;24.70;99.90;;;;;;4927117;29;20595;-77
2023/08/16 08:10:32;;;;;;;10.97;9.97;;;24.80;99.90;;;;;;4939964;28;20244;-76
2023/08/16 08:12:58;;;;;;;9.93;9.00;;;24.90;99.90;;;;;;4941345;29;21131;-76
2023/08/16 08:15:24;;;;;;;10.33;9.30;;;25.00;99.90;;;;;;4959019;28;20683;-75
2023/08/16 08:17:50;;;;;;;11.20;10.10;;;25.10;99.90;;;;;;4916959;29;21162;-75
2023/08/16 08:20:16;;;;;;;12.17;10.50;;;25.30;99.90;;;;;;4916702;29;20181;-76
2023/08/16 08:22:42;;;;;;;9.77;8.83;;;25.50;99.90;;;;;;4932573;29;20196;-75
2023/08/16 08:25:08;;;;;;;9.83;8.83;;;25.60;99.90;;;;;;4932329;29;20629;-75
2023/08/16 08:27:34;;;;;;;8.70;7.87;;;25.70;99.90;;;;;;4932479;29;20596;-75
2023/08/16 08:30:01;;;;;;;8.00;7.20;;;25.80;99.90;;;;;;4960282;28;20578;-76
2023/08/16 08:32:27;;;;;;;8.60;7.60;;;25.90;99.90;;;;;;4932519;29;20189;-75
2023/08/16 08:34:53;;;;;;;14.30;11.87;;;26.00;99.90;;;;;;4932384;29;20597;-75
2023/08/16 08:37:19;;;;;;;13.13;11.80;;;26.10;99.90;;;;;;4933433;29;20688;-76
2023/08/16 08:39:45;;;;;;;11.60;10.33;;;26.10;99.90;;;;;;4956045;28;20205;-75
2023/08/16 08:42:11;;;;;;;11.33;10.20;;;26.10;99.90;;;;;;4956092;28;20178;-75
2023/08/16 08:44:38;;;;;;;12.53;11.43;;;26.10;99.90;;;;;;4951080;28;20547;-75
2023/08/16 08:47:07;;;;;;;11.57;10.60;;;26.10;99.90;;;;;;4932189;29;20593;-75
2023/08/16 08:49:34;;;;;;;12.77;11.70;;;26.20;99.90;;;;;;4933588;29;20652;-75
2023/08/16 08:52:03;;;;;;;12.57;11.47;;;26.10;99.90;;;;;;4936176;29;20690;-76
2023/08/16 08:54:29;;;;;;;10.53;9.37;;;26.10;99.90;;;;;;4952242;28;20582;-75
2023/08/16 08:56:59;;;;;;;9.33;8.53;;;26.00;99.90;;;;;;4925226;29;20621;-76
2023/08/16 08:59:27;;;;;;;9.63;8.73;;;26.00;99.90;;;;;;4947271;28;20596;-75
2023/08/16 09:01:53;;;;;;;10.07;8.10;;;25.90;99.90;;;;;;4936509;29;20631;-77
2023/08/16 09:04:20;;;;;;;9.53;8.43;;;25.90;99.90;;;;;;4955961;28;20950;-74
2023/08/16 09:06:46;;;;;;;8.37;7.57;;;25.90;99.90;;;;;;4950163;28;20661;-74
2023/08/16 09:09:12;;;;;;;8.80;7.83;;;25.90;99.90;;;;;;4931617;29;20612;-75
2023/08/16 09:11:38;;;;;;;8.93;8.13;;;26.00;99.90;;;;;;4954747;28;20704;-74
2023/08/16 09:14:04;;;;;;;10.80;9.90;;;25.90;99.90;;;;;;4934056;29;20593;-74
2023/08/16 09:16:30;;;;;;;11.17;9.77;;;26.00;99.90;;;;;;4937139;29;20683;-76
2023/08/16 09:18:57;;;;;;;12.23;11.03;;;26.00;99.90;;;;;;4964209;28;20593;-75
2023/08/16 09:21:28;;;;;;;13.53;9.27;;;25.90;99.90;;;;;;4936003;29;20260;-75
2023/08/16 09:23:58;;;;;;;11.60;10.40;;;25.90;99.90;;;;;;4951783;28;20600;-75
2023/08/16 09:26:26;;;;;;;11.47;10.27;;;26.00;99.90;;;;;;4959516;28;20635;-76
2023/08/16 09:28:59;;;;;;;11.83;10.67;;;26.00;99.90;;;;;;4954849;28;20608;-76
2023/08/16 09:31:32;;;;;;;10.70;9.60;;;26.10;99.90;;;;;;4950828;28;20636;-76
2023/08/16 09:34:01;;;;;;;9.80;9.00;;;26.10;99.90;;;;;;4936460;29;20595;-77
2023/08/16 09:36:30;;;;;;;10.13;9.10;;;26.10;99.90;;;;;;4928910;29;20625;-75
2023/08/16 09:39:08;;;;;;;12.23;8.20;;;26.30;99.90;;;;;;4935410;29;20687;-76
2023/08/16 09:41:38;;;;;;;8.30;7.50;;;26.40;99.90;;;;;;4955026;28;21236;-76
2023/08/16 09:44:04;;;;;;;9.43;8.60;;;26.60;99.90;;;;;;4935829;29;20589;-75
2023/08/16 09:46:31;;;;;;;9.00;7.80;;;26.70;99.90;;;;;;4935286;29;20630;-76
2023/08/16 09:49:03;;;;;;;7.87;7.17;;;26.90;99.90;;;;;;4952205;28;21015;-77
2023/08/16 09:51:31;;;;;;;7.77;6.97;;;27.10;99.90;;;;;;4927189;29;20624;-77
2023/08/16 09:53:57;;;;;;;7.77;7.17;;;27.40;99.90;;;;;;4934999;29;21278;-76
2023/08/16 09:56:25;;;;;;;8.10;7.30;;;27.70;99.90;;;;;;4934363;29;20623;-77
2023/08/16 09:58:51;;;;;;;9.70;8.53;;;28.10;99.90;;;;;;4962469;28;20585;-76
2023/08/16 10:01:17;;;;;;;7.13;6.43;;;28.40;99.90;;;;;;4950614;28;20656;-77
2023/08/16 10:03:50;;;;;;;6.13;5.53;;;28.90;99.90;;;;;;4937875;29;20604;-77
2023/08/16 10:06:16;;;;;;;7.20;6.30;;;29.20;99.90;;;;;;4951156;28;20637;-77
2023/08/16 10:08:42;;;;;;;6.27;5.67;;;29.80;99.90;;;;;;4936172;29;21169;-77
2023/08/16 10:11:10;;;;;;;6.20;5.60;;;30.50;99.90;;;;;;4918864;29;20201;-77
2023/08/16 10:13:38;;;;;;;6.93;6.23;;;31.40;99.90;;;;;;4968060;28;21168;-77
2023/08/16 10:16:04;;;;;;;6.10;5.50;;;32.10;99.90;;;;;;4932422;29;21024;-76
2023/08/16 10:18:31;;;;;;;5.90;5.30;;;32.60;99.90;;;;;;4955315;28;20595;-76
2023/08/16 10:20:59;;;;;;;7.40;5.87;;;32.80;99.90;;;;;;4957220;28;20639;-77
2023/08/16 10:23:27;;;;;;;6.50;6.00;;;32.90;99.90;;;;;;4950296;28;21160;-77
2023/08/16 10:25:55;;;;;;;5.43;4.93;;;33.00;99.90;;;;;;4935562;29;20648;-77
2023/08/16 10:28:23;;;;;;;6.60;4.60;;;33.00;99.90;;;;;;4951803;28;20596;-77
2023/08/16 10:30:52;;;;;;;6.60;5.60;;;32.90;99.90;;;;;;4934225;29;21138;-77
2023/08/16 10:33:23;;;;;;;5.47;5.00;;;32.80;99.90;;;;;;4935744;29;21157;-77
2023/08/16 10:35:50;;;;;;;8.37;4.87;;;32.60;99.90;;;;;;4935742;29;20634;-77
2023/08/16 10:38:18;;;;;;;6.53;5.10;;;32.50;99.90;;;;;;4916675;29;20654;-78
2023/08/16 10:40:58;;;;;;;7.80;6.23;;;32.30;99.90;;;;;;4956491;28;20648;-77
2023/08/16 10:43:33;;;;;;;7.90;7.20;;;32.10;99.90;;;;;;4949603;28;20623;-77
2023/08/16 10:46:00;;;;;;;8.10;7.07;;;31.80;99.90;;;;;;4935685;29;20633;-77
2023/08/16 10:48:33;;;;;;;8.20;7.40;;;31.50;99.90;;;;;;4934081;29;20998;-77
2023/08/16 10:51:03;;;;;;;8.00;7.30;;;31.20;99.90;;;;;;4933909;29;20605;-76
2023/08/16 10:53:29;;;;;;;8.83;8.13;;;30.80;99.90;;;;;;4963886;28;20793;-77
2023/08/16 10:55:56;;;;;;;8.90;8.03;;;30.60;99.90;;;;;;4951509;28;20671;-77
2023/08/16 10:58:23;;;;;;;9.50;8.70;;;30.30;99.90;;;;;;4932853;29;20951;-77
2023/08/16 11:00:57;;;;;;;8.03;7.33;;;30.00;99.90;;;;;;4952022;28;20713;-76
2023/08/16 11:03:33;;;;;;;9.93;8.13;;;29.80;99.90;;;;;;4934073;29;21014;-77
2023/08/16 11:06:00;;;;;;;10.10;9.20;;;29.50;99.90;;;;;;4914791;29;20622;-77
2023/08/16 11:08:32;;;;;;;8.60;7.90;;;29.30;99.90;;;;;;4964545;28;20622;-77
2023/08/16 11:11:01;;;;;;;9.50;8.63;;;29.10;99.90;;;;;;4933574;29;20608;-76
2023/08/16 11:13:28;;;;;;;9.20;8.40;;;29.10;99.90;;;;;;4912146;28;20635;-77
2023/08/16 11:15:55;;;;;;;9.97;9.07;;;29.30;99.90;;;;;;4934824;29;21197;-77
2023/08/16 11:18:31;;;;;;;8.30;7.60;;;29.50;99.90;;;;;;4949736;28;20607;-77
2023/08/16 11:21:01;;;;;;;8.33;7.50;;;29.70;99.90;;;;;;4949942;28;20681;-77
2023/08/16 11:23:38;;;;;;;9.50;8.60;;;29.90;99.90;;;;;;4934101;29;20677;-77
2023/08/16 11:26:07;;;;;;;9.13;8.23;;;30.00;99.90;;;;;;4965790;28;20617;-77
2023/08/16 11:29:01;;;;;;;9.33;8.17;;;30.20;99.90;;;;;;4933855;28;20601;-77
2023/08/16 11:31:27;;;;;;;8.83;8.10;;;30.30;99.90;;;;;;4933064;29;20636;-77
2023/08/16 11:33:53;;;;;;;8.73;8.00;;;30.40;99.90;;;;;;4933330;29;20684;-77
2023/08/16 11:36:18;;;;;;;7.23;6.30;;;30.40;99.90;;;;;;4926643;29;20702;-77
2023/08/16 11:38:48;;;;;;;9.33;8.43;;;30.50;99.90;;;;;;4929986;29;20195;-77
2023/08/16 11:41:18;;;;;;;9.07;8.13;;;30.70;99.90;;;;;;4930508;28;20606;-78
2023/08/16 11:43:44;;;;;;;8.13;7.33;;;30.70;99.90;;;;;;4930646;28;20664;-79
2023/08/16 11:46:10;;;;;;;8.00;7.20;;;30.70;99.90;;;;;;4924575;29;20641;-77
2023/08/16 11:48:36;;;;;;;9.77;8.77;;;30.70;99.90;;;;;;4933250;29;20632;-77
2023/08/16 11:51:02;;;;;;;9.33;8.53;;;30.50;99.90;;;;;;4934497;29;20227;-77
2023/08/16 11:53:35;;;;;;;8.17;7.50;;;30.40;99.90;;;;;;4936735;29;20589;-78
2023/08/16 11:56:04;;;;;;;9.70;8.73;;;30.40;99.90;;;;;;4934278;29;20635;-78
2023/08/16 11:58:43;;;;;;;8.20;7.50;;;30.30;99.90;;;;;;4937364;29;21002;-78
2023/08/16 12:01:11;;;;;;;9.37;8.47;;;30.30;99.90;;;;;;4968511;28;20634;-77
2023/08/16 12:03:37;;;;;;;9.37;8.47;;;30.20;99.90;;;;;;4953643;28;20567;-78
2023/08/16 12:06:08;;;;;;;8.03;7.30;;;30.20;99.90;;;;;;4953791;28;20629;-78
2023/08/16 12:08:35;;;;;;;8.83;8.03;;;30.20;99.90;;;;;;4901339;29;20664;-79
2023/08/16 12:11:02;;;;;;;9.90;8.60;;;30.20;99.90;;;;;;4932415;29;20658;-77
2023/08/16 12:13:29;;;;;;;8.80;8.00;;;30.30;99.90;;;;;;4938413;29;20969;-78
2023/08/16 12:15:55;;;;;;;8.97;8.10;;;30.30;99.90;;;;;;4940301;28;20651;-78
2023/08/16 12:18:23;;;;;;;7.80;7.10;;;30.40;99.90;;;;;;4940856;29;20637;-77
2023/08/16 12:20:52;;;;;;;9.80;8.90;;;30.40;99.90;;;;;;4965082;28;20600;-79
2023/08/16 12:23:19;;;;;;;7.40;6.70;;;30.60;99.90;;;;;;4949024;28;20588;-78
2023/08/16 12:25:45;;;;;;;8.20;7.50;;;30.70;99.90;;;;;;4932857;29;20640;-77
2023/08/16 12:28:11;;;;;;;7.20;6.60;;;30.90;99.90;;;;;;4933881;29;20610;-78
2023/08/16 12:30:37;;;;;;;11.83;8.03;;;31.10;99.90;;;;;;4940075;29;20696;-77
2023/08/16 12:33:09;;;;;;;7.90;7.20;;;31.30;99.90;;;;;;4934102;29;20206;-77
2023/08/16 12:35:36;;;;;;;7.90;7.20;;;31.40;99.90;;;;;;4933810;29;20645;-78
2023/08/16 12:38:03;;;;;;;7.03;6.43;;;31.60;99.90;;;;;;4933468;29;20614;-77
2023/08/16 12:40:30;;;;;;;9.33;8.27;;;31.80;99.90;;;;;;4932497;29;20659;-77